createdAt,value
2018-03-03T00:00:10.046Z,93433.97
2018-03-03T00:02:43.306Z,93438.63
2018-03-03T00:05:16.590Z,93441.48
2018-03-03T00:07:49.836Z,93439.94
2018-03-03T00:10:23.129Z,93433.91
2018-03-03T00:12:56.389Z,93434.77
2018-03-03T01:46:36.072Z,93443.59
2018-03-03T01:49:09.352Z,93448.95
2018-03-03T01:51:43.382Z,93452.62
2018-03-03T01:54:16.680Z,93450.67
2018-03-03T01:56:49.945Z,93446.44
2018-03-03T01:59:23.231Z,93442.29
2018-03-03T03:33:04.662Z,93349.58
2018-03-03T03:35:38.689Z,93346.39
2018-03-03T03:38:12.729Z,93351.12
2018-03-03T03:40:46.022Z,93344.69
2018-03-03T03:43:19.306Z,93343.06
2018-03-03T04:47:42.004Z,93291.58
2018-03-03T04:50:15.271Z,93283.50
2018-03-03T04:52:48.553Z,93280.17
2018-03-03T04:55:21.916Z,93269.84
2018-03-03T04:57:55.215Z,93268.63
2018-03-03T06:02:25.203Z,93199.86
2018-03-03T06:05:03.949Z,93207.31
2018-03-03T06:07:42.812Z,93199.48
2018-03-03T06:10:21.573Z,93200.98
2018-03-03T06:12:54.852Z,93200.50
2018-03-03T06:15:28.143Z,93198.64
2018-03-03T06:18:02.572Z,93197.53
2018-03-03T06:20:35.853Z,93196.80
2018-03-03T06:23:09.132Z,93195.66
2018-03-03T06:25:42.401Z,93196.56
2018-03-03T06:28:15.664Z,93198.75
2018-03-03T06:30:48.949Z,93199.73
2018-03-03T06:33:22.231Z,93197.70
2018-03-03T06:35:55.491Z,93198.20
2018-03-03T06:38:28.784Z,93203.70
2018-03-03T06:41:02.037Z,93217.05
2018-03-03T06:43:36.077Z,93214.26
2018-03-03T06:46:09.382Z,93218.23
2018-03-03T06:48:42.632Z,93210.25
2018-03-03T06:51:16.677Z,93205.20
2018-03-03T06:53:49.970Z,93207.30
2018-03-03T06:56:24.002Z,93212.28
2018-03-03T06:58:57.262Z,93213.56
2018-03-03T07:01:30.554Z,93203.06
2018-03-03T07:04:04.593Z,93205.70
2018-03-03T07:06:37.876Z,93202.74
2018-03-03T07:09:11.136Z,93199.15
2018-03-03T07:11:45.193Z,93194.80
2018-03-03T07:17:17.330Z,93183.85
2018-03-03T07:19:50.592Z,93184.11
2018-03-03T07:22:23.898Z,93182.23
2018-03-03T07:24:57.178Z,93180.98
2018-03-03T07:27:30.464Z,93181.12
2018-03-03T07:30:03.733Z,93189.80
2018-03-03T07:32:37.229Z,93191.24
2018-03-03T07:35:10.498Z,93193.53
2018-03-03T07:37:44.555Z,93194.74
2018-03-03T07:40:17.817Z,93189.13
2018-03-03T07:42:51.861Z,93186.52
2018-03-03T07:45:25.158Z,93187.73
2018-03-03T07:47:58.444Z,93185.70
2018-03-03T07:50:31.700Z,93195.06
2018-03-03T07:53:05.748Z,93183.73
2018-03-03T07:55:39.012Z,93179.09
2018-03-03T07:58:31.048Z,93184.86
2018-03-03T08:01:05.108Z,93169.66
2018-03-03T08:03:38.413Z,93174.70
2018-03-03T08:06:11.676Z,93172.05
2018-03-03T08:08:44.956Z,93169.52
2018-03-03T08:11:18.217Z,93168.66
2018-03-03T08:13:51.607Z,93179.86
2018-03-03T08:16:24.871Z,93178.50
2018-03-03T08:18:58.166Z,93176.66
2018-03-03T08:21:31.431Z,93172.06
2018-03-03T08:24:04.738Z,93161.20
2018-03-03T08:26:38.002Z,93155.72
2018-03-03T08:29:12.064Z,93155.72
2018-03-03T08:31:45.330Z,93145.72
2018-03-03T08:34:18.637Z,93145.70
2018-03-03T08:36:51.895Z,93141.52
2018-03-03T08:39:25.942Z,93132.60
2018-03-03T08:41:59.192Z,93137.94
2018-03-03T08:44:33.246Z,93142.09
2018-03-03T08:47:06.507Z,93137.33
2018-03-03T08:49:40.568Z,93135.70
2018-03-03T08:52:13.820Z,93130.56
2018-03-03T08:54:47.117Z,93137.22
2018-03-03T08:57:21.140Z,93145.88
2018-03-03T08:59:54.683Z,93148.67
2018-03-03T09:02:28.213Z,93154.63
2018-03-03T09:05:01.470Z,93154.96
2018-03-03T09:07:34.778Z,93162.33
2018-03-03T09:10:08.059Z,93162.08
2018-03-03T09:12:41.337Z,93168.80
2018-03-03T09:15:14.597Z,93160.58
2018-03-03T09:17:48.648Z,93163.56
2018-03-03T09:20:21.888Z,93157.14
2018-03-03T09:22:55.173Z,93157.66
2018-03-03T09:25:28.454Z,93152.45
2018-03-03T09:28:01.939Z,93148.42
2018-03-03T09:30:35.320Z,93149.50
2018-03-03T09:33:08.802Z,93150.64
2018-03-03T09:35:42.200Z,93152.73
2018-03-03T09:38:15.534Z,93151.31
2018-03-03T09:40:48.956Z,93157.09
2018-03-03T09:43:22.378Z,93150.52
2018-03-03T09:45:55.831Z,93147.56
2018-03-03T09:48:29.197Z,93145.17
2018-03-03T09:51:02.760Z,93142.50
2018-03-03T09:53:36.325Z,93138.19
2018-03-03T09:56:09.687Z,93130.93
2018-03-03T09:58:43.094Z,93115.72
2018-03-03T10:01:16.424Z,93118.74
2018-03-03T10:03:50.859Z,93119.95
2018-03-03T10:06:24.230Z,93112.59
2018-03-03T10:08:58.302Z,93110.28
2018-03-03T10:11:31.678Z,93122.38
2018-03-03T10:14:05.021Z,93129.72
2018-03-03T10:16:38.399Z,93129.50
2018-03-03T10:19:11.711Z,93131.94
2018-03-03T10:21:45.017Z,93135.81
2018-03-03T10:24:18.361Z,93136.61
2018-03-03T10:26:51.678Z,93127.44
2018-03-03T10:29:24.986Z,93122.51
2018-03-03T10:31:58.308Z,93132.48
2018-03-03T10:34:31.559Z,93129.72
2018-03-03T10:37:04.920Z,93128.42
2018-03-03T10:39:38.262Z,93117.66
2018-03-03T10:42:11.551Z,93119.47
2018-03-03T10:44:44.948Z,93123.99
2018-03-03T10:47:18.351Z,93113.81
2018-03-03T10:49:51.846Z,93116.23
2018-03-03T10:52:25.146Z,93121.62
2018-03-03T10:54:58.469Z,93118.72
2018-03-03T10:57:31.729Z,93119.84
2018-03-03T11:00:06.848Z,93122.91
2018-03-03T11:02:41.506Z,93117.38
2018-03-03T11:05:17.347Z,93108.92
2018-03-03T11:07:50.982Z,93108.83
2018-03-03T11:10:24.607Z,93118.55
2018-03-03T11:12:58.424Z,93119.48
2018-03-03T11:15:31.996Z,93105.91
2018-03-03T11:18:05.354Z,93102.60
2018-03-03T11:20:38.738Z,93100.64
2018-03-03T11:23:12.173Z,93089.80
2018-03-03T11:25:45.928Z,93085.70
2018-03-03T11:28:19.309Z,93076.06
2018-03-03T11:30:52.689Z,93068.71
2018-03-03T11:33:26.084Z,93069.34
2018-03-03T11:35:59.547Z,93060.27
2018-03-03T11:38:32.907Z,93072.41
2018-03-03T11:41:07.066Z,93057.47
2018-03-03T11:43:40.435Z,93057.50
2018-03-03T11:46:13.863Z,93056.52
2018-03-03T11:48:47.203Z,93049.15
2018-03-03T11:51:20.620Z,93054.50
2018-03-03T11:53:54.805Z,93044.02
2018-03-03T11:56:28.896Z,93046.56
2018-03-03T11:59:02.190Z,93043.12
2018-03-03T12:01:35.633Z,93057.56
2018-03-03T12:04:09.093Z,93055.56
2018-03-03T12:06:42.569Z,93054.25
2018-03-03T12:09:15.835Z,93062.93
2018-03-03T12:11:49.109Z,93064.45
2018-03-03T12:14:23.134Z,93067.08
2018-03-03T12:16:57.206Z,93064.56
2018-03-03T12:19:30.476Z,93053.11
2018-03-03T12:22:03.759Z,93054.02
2018-03-03T12:24:37.081Z,93053.32
2018-03-03T12:27:10.350Z,93057.27
2018-03-03T12:29:43.609Z,93059.37
2018-03-03T12:32:17.644Z,93066.25
2018-03-03T12:34:50.893Z,93065.36
2018-03-03T12:37:24.152Z,93066.16
2018-03-03T12:39:57.413Z,93070.82
2018-03-03T12:42:31.453Z,93076.56
2018-03-03T12:45:04.714Z,93079.22
2018-03-03T12:47:38.950Z,93082.65
2018-03-03T12:50:12.200Z,93087.39
2018-03-03T12:52:45.493Z,93090.52
2018-03-03T12:55:18.753Z,93091.44
2018-03-03T12:57:52.055Z,93098.11
2018-03-03T13:00:25.280Z,93103.27
2018-03-03T13:02:59.332Z,93108.41
2018-03-03T13:05:32.610Z,93110.12
2018-03-03T13:08:06.635Z,93100.92
2018-03-03T13:10:39.907Z,93104.76
2018-03-03T13:13:13.946Z,93098.82
2018-03-03T13:15:47.226Z,93100.33
2018-03-03T13:18:20.492Z,93101.24
2018-03-03T13:20:54.518Z,93098.91
2018-03-03T13:23:31.519Z,93105.09
2018-03-03T13:26:04.770Z,93109.31
2018-03-03T13:28:38.070Z,93114.80
2018-03-03T13:31:11.324Z,93120.05
2018-03-03T13:33:44.602Z,93116.28
2018-03-03T13:36:17.920Z,93115.09
2018-03-03T13:38:51.177Z,93117.92
2018-03-03T13:41:24.473Z,93116.52
2018-03-03T13:43:57.749Z,93115.91
2018-03-03T13:46:31.032Z,93110.24
2018-03-03T13:49:04.269Z,93109.51
2018-03-03T13:51:37.537Z,93114.19
2018-03-03T13:54:10.819Z,93105.98
2018-03-03T13:56:44.073Z,93093.45
2018-03-03T13:59:17.342Z,93108.21
2018-03-03T14:01:50.617Z,93131.36
2018-03-03T14:04:24.882Z,93137.22
2018-03-03T14:06:58.163Z,93131.24
2018-03-03T14:09:31.428Z,93134.17
2018-03-03T14:12:04.680Z,93140.85
2018-03-03T14:14:37.966Z,93146.11
2018-03-03T14:17:11.228Z,93147.93
2018-03-03T14:19:44.514Z,93143.98
2018-03-03T14:22:17.750Z,93150.26
2018-03-03T14:24:51.029Z,93154.92
2018-03-03T14:27:24.313Z,93147.64
2018-03-03T14:29:57.591Z,93157.13
2018-03-03T14:32:30.852Z,93163.11
2018-03-03T14:35:04.950Z,93167.86
2018-03-03T14:37:40.459Z,93170.07
2018-03-03T14:40:13.734Z,93166.84
2018-03-03T14:42:46.996Z,93170.67
2018-03-03T14:45:21.041Z,93169.88
2018-03-03T14:47:54.298Z,93171.48
2018-03-03T14:50:27.575Z,93163.41
2018-03-03T14:53:00.830Z,93174.80
2018-03-03T14:55:34.125Z,93178.83
2018-03-03T14:58:07.381Z,93174.19
2018-03-03T15:00:41.572Z,93176.01
2018-03-03T15:03:15.008Z,93170.94
2018-03-03T15:05:49.044Z,93183.77
2018-03-03T15:08:22.345Z,93197.09
2018-03-03T15:10:55.604Z,93203.06
2018-03-03T15:13:28.898Z,93197.20
2018-03-03T15:16:02.214Z,93198.38
2018-03-03T15:18:35.493Z,93198.79
2018-03-03T15:21:08.759Z,93205.36
2018-03-03T15:23:42.040Z,93209.27
2018-03-03T15:26:15.291Z,93199.06
2018-03-03T15:28:48.574Z,93208.15
2018-03-03T15:31:22.089Z,93223.40
2018-03-03T15:33:55.363Z,93229.73
2018-03-03T15:36:28.615Z,93239.15
2018-03-03T15:39:01.894Z,93236.33
2018-03-03T15:41:35.154Z,93236.53
2018-03-03T15:44:08.441Z,93243.70
2018-03-03T15:46:41.706Z,93248.64
2018-03-03T15:49:14.979Z,93251.38
2018-03-03T15:51:48.226Z,93255.87
2018-03-03T15:54:21.517Z,93266.58
2018-03-03T15:56:54.776Z,93265.16
2018-03-03T15:59:28.076Z,93269.30
2018-03-03T16:02:01.341Z,93270.52
2018-03-03T16:04:34.613Z,93271.63
2018-03-03T16:07:07.874Z,93283.85
2018-03-03T16:09:41.927Z,93285.27
2018-03-03T16:12:15.248Z,93283.34
2018-03-03T16:14:48.518Z,93300.71
2018-03-03T16:17:21.865Z,93307.98
2018-03-03T16:19:55.977Z,93314.54
2018-03-03T16:22:30.129Z,93321.56
2018-03-03T16:25:03.457Z,93333.37
2018-03-03T16:27:36.798Z,93334.17
2018-03-03T16:30:12.254Z,93337.30
2018-03-03T16:32:45.547Z,93342.09
2018-03-03T16:35:18.872Z,93336.84
2018-03-03T16:37:52.166Z,93334.41
2018-03-03T16:40:25.473Z,93342.48
2018-03-03T16:42:58.801Z,93356.25
2018-03-03T16:45:32.894Z,93371.39
2018-03-03T16:48:06.182Z,93363.41
2018-03-03T16:50:39.442Z,93378.34
2018-03-03T16:53:12.732Z,93385.09
2018-03-03T16:55:46.018Z,93388.88
2018-03-03T16:58:19.508Z,93395.42
2018-03-03T17:00:52.798Z,93405.90
2018-03-03T17:03:26.929Z,93410.38
2018-03-03T17:06:02.658Z,93412.60
2018-03-03T17:08:36.710Z,93413.39
2018-03-03T17:11:09.965Z,93411.42
2018-03-03T17:13:43.252Z,93408.30
2018-03-03T17:16:16.497Z,93415.41
2018-03-03T17:18:49.769Z,93417.70
2018-03-03T17:21:23.053Z,93425.79
2018-03-03T17:23:56.337Z,93434.30
2018-03-03T17:26:30.360Z,93444.96
2018-03-03T17:29:03.688Z,93453.17
2018-03-03T17:31:36.933Z,93454.94
2018-03-03T17:34:10.223Z,93465.23
2018-03-03T17:36:44.237Z,93469.00
2018-03-03T17:39:18.514Z,93470.02
2018-03-03T17:41:53.221Z,93468.75
2018-03-03T17:44:27.580Z,93475.10
2018-03-03T17:47:04.387Z,93474.83
2018-03-03T17:52:20.430Z,93473.30
2018-03-03T17:54:54.721Z,93474.71
2018-03-03T17:57:28.224Z,93484.95
2018-03-03T18:00:06.460Z,93488.50
2018-03-03T18:02:41.965Z,93487.59
2018-03-03T18:05:16.180Z,93493.53
2018-03-03T18:07:51.759Z,93492.16
2018-03-03T18:10:28.559Z,93495.28
2018-03-03T18:13:02.749Z,93495.49
2018-03-03T18:15:36.606Z,93497.77
2018-03-03T18:18:10.844Z,93499.61
2018-03-03T18:20:45.577Z,93501.36
2018-03-03T18:23:19.591Z,93501.91
2018-03-03T18:25:54.850Z,93504.75
2018-03-03T18:28:28.103Z,93499.85
2018-03-03T18:31:02.150Z,93503.19
2018-03-03T18:33:35.429Z,93510.15
2018-03-03T18:36:09.452Z,93513.37
2018-03-03T18:38:42.737Z,93519.02
2018-03-03T18:41:16.032Z,93522.05
2018-03-03T18:43:50.046Z,93519.17
2018-03-03T18:46:23.326Z,93516.20
2018-03-03T18:48:56.603Z,93510.96
2018-03-03T18:51:29.878Z,93522.02
2018-03-03T18:54:03.150Z,93518.98
2018-03-03T18:56:36.422Z,93520.80
2018-03-03T18:59:09.736Z,93512.52
2018-03-03T19:01:43.021Z,93517.98
2018-03-03T19:04:16.289Z,93521.23
2018-03-03T19:06:50.362Z,93531.22
2018-03-03T19:09:23.619Z,93535.75
2018-03-03T19:11:56.897Z,93540.39
2018-03-03T19:14:30.172Z,93539.89
2018-03-03T19:17:04.232Z,93549.08
2018-03-03T19:19:37.507Z,93548.98
2018-03-03T19:22:10.756Z,93545.95
2018-03-03T19:24:44.030Z,93552.60
2018-03-03T19:27:17.291Z,93552.02
2018-03-03T19:29:55.294Z,93561.72
2018-03-03T19:32:28.550Z,93567.31
2018-03-03T19:35:01.843Z,93570.34
2018-03-03T19:37:35.123Z,93573.92
2018-03-03T19:40:08.413Z,93573.52
2018-03-03T19:42:41.662Z,93575.33
2018-03-03T19:45:14.946Z,93580.77
2018-03-03T19:47:48.214Z,93578.55
2018-03-03T19:50:21.495Z,93578.95
2018-03-03T19:52:54.754Z,93584.11
2018-03-03T19:55:28.022Z,93585.67
2018-03-03T19:58:01.289Z,93589.75
2018-03-03T20:00:34.577Z,93590.72
2018-03-03T20:03:07.861Z,93587.76
2018-03-03T20:05:41.117Z,93583.17
2018-03-03T20:08:14.404Z,93588.69
2018-03-03T20:10:47.657Z,93585.76
2018-03-03T20:13:20.934Z,93589.00
2018-03-03T20:15:54.193Z,93588.81
2018-03-03T20:18:27.540Z,93587.35
2018-03-03T20:21:00.809Z,93592.41
2018-03-03T20:23:34.152Z,93595.22
2018-03-03T20:26:07.410Z,93593.91
2018-03-03T20:28:40.701Z,93600.27
2018-03-03T20:31:14.009Z,93602.30
2018-03-03T20:33:47.262Z,93599.91
2018-03-03T20:36:20.537Z,93595.06
2018-03-03T20:38:53.796Z,93598.81
2018-03-03T20:41:27.082Z,93603.47
2018-03-03T20:44:00.340Z,93610.17
2018-03-03T20:46:33.605Z,93606.71
2018-03-03T20:49:06.854Z,93604.93
2018-03-03T20:51:40.140Z,93612.45
2018-03-03T20:54:13.394Z,93613.86
2018-03-03T20:56:46.666Z,93613.45
2018-03-03T20:59:19.918Z,93614.67
2018-03-03T21:01:53.195Z,93616.48
2018-03-03T21:04:26.473Z,93617.39
2018-03-03T21:06:59.726Z,93618.20
2018-03-03T21:09:33.018Z,93621.89
2018-03-03T21:12:21.171Z,93626.13
2018-03-03T21:14:55.208Z,93618.27
2018-03-03T21:17:28.490Z,93620.39
2018-03-03T21:20:02.531Z,93630.88
2018-03-03T21:22:35.776Z,93637.84
2018-03-03T21:25:09.826Z,93636.63
2018-03-03T21:27:43.086Z,93624.33
2018-03-03T21:30:16.376Z,93631.50
2018-03-03T21:32:49.665Z,93630.60
2018-03-03T21:35:22.922Z,93626.26
2018-03-03T21:37:56.210Z,93631.91
2018-03-03T21:40:29.467Z,93631.41
2018-03-03T21:43:02.755Z,93639.38
2018-03-03T21:45:36.773Z,93637.25
2018-03-03T21:48:10.818Z,93646.02
2018-03-03T21:50:44.108Z,93645.21
2018-03-03T21:53:17.377Z,93640.16
2018-03-03T21:55:51.432Z,93640.41
2018-03-03T21:58:24.681Z,93646.55
2018-03-03T22:00:57.955Z,93643.02
2018-03-03T22:03:31.228Z,93650.48
2018-03-03T22:06:04.519Z,93646.55
2018-03-03T22:08:37.801Z,93644.83
2018-03-03T22:11:11.086Z,93645.24
2018-03-03T22:13:44.341Z,93647.55
2018-03-03T22:16:17.613Z,93651.58
2018-03-03T22:18:50.898Z,93654.20
2018-03-03T22:21:24.144Z,93653.48
2018-03-03T22:23:57.426Z,93655.70
2018-03-03T22:26:31.465Z,93660.84
2018-03-03T22:29:04.758Z,93659.54
2018-03-03T22:31:38.001Z,93653.48
2018-03-03T22:34:11.280Z,93653.98
2018-03-03T22:36:44.561Z,93654.38
2018-03-03T22:39:17.845Z,93655.20
2018-03-03T22:41:51.110Z,93656.60
2018-03-03T22:44:24.404Z,93660.13
2018-03-03T22:46:57.655Z,93667.50
2018-03-03T22:49:30.926Z,93666.59
2018-03-03T22:52:04.948Z,93664.97
2018-03-03T22:54:38.228Z,93669.72
2018-03-03T22:57:11.508Z,93669.80
2018-03-03T22:59:44.769Z,93672.84
2018-03-03T23:02:18.817Z,93676.67
2018-03-03T23:04:52.156Z,93674.95
2018-03-03T23:07:25.425Z,93671.71
2018-03-03T23:09:58.679Z,93672.30
2018-03-03T23:12:31.950Z,93680.89
2018-03-03T23:15:05.965Z,93672.21
2018-03-03T23:17:39.261Z,93674.52
2018-03-03T23:20:12.523Z,93681.08
2018-03-03T23:22:45.794Z,93678.36
2018-03-03T23:25:19.047Z,93685.32
2018-03-03T23:27:52.328Z,93676.95
2018-03-03T23:30:25.581Z,93682.61
2018-03-03T23:32:58.871Z,93670.17
2018-03-03T23:35:32.119Z,93681.66
2018-03-03T23:38:05.401Z,93678.88
2018-03-03T23:40:39.421Z,93679.88
2018-03-03T23:43:12.736Z,93676.53
2018-03-03T23:45:45.986Z,93678.66
2018-03-03T23:48:19.275Z,93681.28
2018-03-03T23:50:52.521Z,93687.52
2018-03-03T23:53:25.806Z,93684.49
2018-03-03T23:55:59.828Z,93689.83
2018-03-03T23:58:33.123Z,93698.11
